sensor_id;sensor_type;location;lat;lon;timestamp;P1;durP1;ratioP1;P2;durP2;ratioP2
85510;SDS011;75921;51.616;11.880;2024-02-15T00:02:15;19.67;;;9.30;;
85510;SDS011;75921;51.616;11.880;2024-02-15T00:04:40;15.93;;;9.15;;
85510;SDS011;75921;51.616;11.880;2024-02-15T00:07:06;12.38;;;8.23;;
85510;SDS011;75921;51.616;11.880;2024-02-15T00:09:31;13.00;;;8.37;;
85510;SDS011;75921;51.616;11.880;2024-02-15T00:11:57;20.53;;;7.33;;
85510;SDS011;75921;51.616;11.880;2024-02-15T00:14:24;16.98;;;10.18;;
85510;SDS011;75921;51.616;11.880;2024-02-15T00:16:49;18.00;;;8.48;;
85510;SDS011;75921;51.616;11.880;2024-02-15T00:19:15;16.60;;;9.03;;
85510;SDS011;75921;51.616;11.880;2024-02-15T00:21:44;14.85;;;8.75;;
85510;SDS011;75921;51.616;11.880;2024-02-15T00:24:10;16.33;;;9.40;;
85510;SDS011;75921;51.616;11.880;2024-02-15T00:26:36;17.60;;;10.40;;
85510;SDS011;75921;51.616;11.880;2024-02-15T00:29:01;16.10;;;10.20;;
85510;SDS011;75921;51.616;11.880;2024-02-15T00:31:27;15.68;;;8.57;;
85510;SDS011;75921;51.616;11.880;2024-02-15T00:33:52;19.25;;;11.68;;
85510;SDS011;75921;51.616;11.880;2024-02-15T00:36:18;11.27;;;7.25;;
85510;SDS011;75921;51.616;11.880;2024-02-15T00:38:44;19.63;;;10.37;;
85510;SDS011;75921;51.616;11.880;2024-02-15T00:41:10;16.45;;;9.02;;
85510;SDS011;75921;51.616;11.880;2024-02-15T00:43:35;16.27;;;9.35;;
85510;SDS011;75921;51.616;11.880;2024-02-15T00:46:00;16.23;;;8.60;;
85510;SDS011;75921;51.616;11.880;2024-02-15T00:48:26;14.00;;;7.87;;
85510;SDS011;75921;51.616;11.880;2024-02-15T00:50:53;18.27;;;10.00;;
85510;SDS011;75921;51.616;11.880;2024-02-15T00:53:19;18.65;;;10.00;;
85510;SDS011;75921;51.616;11.880;2024-02-15T00:55:45;15.88;;;8.65;;
85510;SDS011;75921;51.616;11.880;2024-02-15T00:58:10;14.07;;;8.15;;
85510;SDS011;75921;51.616;11.880;2024-02-15T01:00:36;19.27;;;9.03;;
85510;SDS011;75921;51.616;11.880;2024-02-15T01:03:01;16.97;;;9.10;;
85510;SDS011;75921;51.616;11.880;2024-02-15T01:05:26;16.20;;;8.13;;
85510;SDS011;75921;51.616;11.880;2024-02-15T01:07:51;23.83;;;12.07;;
85510;SDS011;75921;51.616;11.880;2024-02-15T01:10:17;18.37;;;10.67;;
85510;SDS011;75921;51.616;11.880;2024-02-15T01:12:42;20.52;;;10.38;;
85510;SDS011;75921;51.616;11.880;2024-02-15T01:15:09;21.65;;;10.18;;
85510;SDS011;75921;51.616;11.880;2024-02-15T01:17:34;21.90;;;11.73;;
85510;SDS011;75921;51.616;11.880;2024-02-15T01:19:59;18.10;;;7.87;;
85510;SDS011;75921;51.616;11.880;2024-02-15T01:22:24;16.07;;;9.03;;
85510;SDS011;75921;51.616;11.880;2024-02-15T01:24:52;17.35;;;9.32;;
85510;SDS011;75921;51.616;11.880;2024-02-15T01:27:17;14.75;;;7.38;;
85510;SDS011;75921;51.616;11.880;2024-02-15T01:29:42;18.57;;;8.77;;
85510;SDS011;75921;51.616;11.880;2024-02-15T01:32:08;17.40;;;8.97;;
85510;SDS011;75921;51.616;11.880;2024-02-15T01:34:33;19.50;;;9.90;;
85510;SDS011;75921;51.616;11.880;2024-02-15T01:36:58;21.98;;;11.30;;
85510;SDS011;75921;51.616;11.880;2024-02-15T01:39:23;16.20;;;9.23;;
85510;SDS011;75921;51.616;11.880;2024-02-15T01:41:49;19.77;;;9.23;;
85510;SDS011;75921;51.616;11.880;2024-02-15T01:44:21;20.83;;;11.35;;
85510;SDS011;75921;51.616;11.880;2024-02-15T01:46:46;21.30;;;10.13;;
85510;SDS011;75921;51.616;11.880;2024-02-15T01:49:13;20.88;;;11.18;;
85510;SDS011;75921;51.616;11.880;2024-02-15T01:51:39;21.20;;;11.70;;
85510;SDS011;75921;51.616;11.880;2024-02-15T01:54:08;19.45;;;9.68;;
85510;SDS011;75921;51.616;11.880;2024-02-15T01:56:33;13.60;;;7.68;;
85510;SDS011;75921;51.616;11.880;2024-02-15T01:58:59;19.83;;;10.85;;
85510;SDS011;75921;51.616;11.880;2024-02-15T02:01:26;20.73;;;10.98;;
85510;SDS011;75921;51.616;11.880;2024-02-15T02:03:53;18.85;;;9.68;;
85510;SDS011;75921;51.616;11.880;2024-02-15T02:06:19;19.73;;;9.13;;
85510;SDS011;75921;51.616;11.880;2024-02-15T02:08:44;19.50;;;9.20;;
85510;SDS011;75921;51.616;11.880;2024-02-15T02:11:09;20.07;;;10.60;;
85510;SDS011;75921;51.616;11.880;2024-02-15T02:13:35;17.60;;;9.43;;
85510;SDS011;75921;51.616;11.880;2024-02-15T02:16:00;21.73;;;11.87;;
85510;SDS011;75921;51.616;11.880;2024-02-15T02:18:25;20.47;;;10.60;;
85510;SDS011;75921;51.616;11.880;2024-02-15T02:20:50;20.30;;;11.03;;
85510;SDS011;75921;51.616;11.880;2024-02-15T02:23:17;22.53;;;11.20;;
85510;SDS011;75921;51.616;11.880;2024-02-15T02:25:47;20.08;;;11.25;;
85510;SDS011;75921;51.616;11.880;2024-02-15T02:28:14;19.15;;;9.50;;
85510;SDS011;75921;51.616;11.880;2024-02-15T02:30:41;17.30;;;9.00;;
85510;SDS011;75921;51.616;11.880;2024-02-15T02:33:10;21.83;;;10.57;;
85510;SDS011;75921;51.616;11.880;2024-02-15T02:35:36;18.50;;;10.50;;
85510;SDS011;75921;51.616;11.880;2024-02-15T02:38:02;23.30;;;10.75;;
85510;SDS011;75921;51.616;11.880;2024-02-15T02:40:28;22.48;;;9.98;;
85510;SDS011;75921;51.616;11.880;2024-02-15T02:42:54;17.67;;;7.97;;
85510;SDS011;75921;51.616;11.880;2024-02-15T02:45:22;21.27;;;10.90;;
85510;SDS011;75921;51.616;11.880;2024-02-15T02:47:48;19.02;;;9.43;;
85510;SDS011;75921;51.616;11.880;2024-02-15T02:50:14;19.85;;;8.95;;
85510;SDS011;75921;51.616;11.880;2024-02-15T02:52:39;25.25;;;12.07;;
85510;SDS011;75921;51.616;11.880;2024-02-15T02:55:05;23.63;;;11.02;;
85510;SDS011;75921;51.616;11.880;2024-02-15T02:57:37;22.20;;;11.40;;
85510;SDS011;75921;51.616;11.880;2024-02-15T03:00:06;22.13;;;10.75;;
85510;SDS011;75921;51.616;11.880;2024-02-15T03:02:37;24.60;;;10.27;;
85510;SDS011;75921;51.616;11.880;2024-02-15T03:05:03;21.77;;;11.65;;
85510;SDS011;75921;51.616;11.880;2024-02-15T03:07:32;23.70;;;11.50;;
85510;SDS011;75921;51.616;11.880;2024-02-15T03:09:57;21.05;;;10.80;;
85510;SDS011;75921;51.616;11.880;2024-02-15T03:12:23;20.90;;;10.00;;
85510;SDS011;75921;51.616;11.880;2024-02-15T03:14:48;24.47;;;12.93;;
85510;SDS011;75921;51.616;11.880;2024-02-15T03:17:13;20.83;;;10.90;;
85510;SDS011;75921;51.616;11.880;2024-02-15T03:19:38;21.07;;;11.20;;
85510;SDS011;75921;51.616;11.880;2024-02-15T03:22:04;15.83;;;8.27;;
85510;SDS011;75921;51.616;11.880;2024-02-15T03:24:29;23.92;;;10.77;;
85510;SDS011;75921;51.616;11.880;2024-02-15T03:26:54;22.23;;;10.53;;
85510;SDS011;75921;51.616;11.880;2024-02-15T03:29:20;21.48;;;9.55;;
85510;SDS011;75921;51.616;11.880;2024-02-15T03:31:46;19.80;;;9.77;;
85510;SDS011;75921;51.616;11.880;2024-02-15T03:34:12;20.70;;;9.05;;
85510;SDS011;75921;51.616;11.880;2024-02-15T03:36:39;21.65;;;10.98;;
85510;SDS011;75921;51.616;11.880;2024-02-15T03:39:04;27.20;;;12.03;;
85510;SDS011;75921;51.616;11.880;2024-02-15T03:41:31;22.83;;;9.63;;
85510;SDS011;75921;51.616;11.880;2024-02-15T03:43:57;18.88;;;9.77;;
85510;SDS011;75921;51.616;11.880;2024-02-15T03:46:24;21.95;;;11.52;;
85510;SDS011;75921;51.616;11.880;2024-02-15T03:48:49;17.17;;;8.30;;
85510;SDS011;75921;51.616;11.880;2024-02-15T03:51:17;20.53;;;9.70;;
85510;SDS011;75921;51.616;11.880;2024-02-15T03:53:48;19.90;;;8.70;;
85510;SDS011;75921;51.616;11.880;2024-02-15T03:56:13;18.60;;;9.23;;
85510;SDS011;75921;51.616;11.880;2024-02-15T03:58:39;24.50;;;11.03;;
85510;SDS011;75921;51.616;11.880;2024-02-15T04:01:04;23.20;;;10.05;;
85510;SDS011;75921;51.616;11.880;2024-02-15T04:03:31;16.77;;;9.18;;
85510;SDS011;75921;51.616;11.880;2024-02-15T04:05:57;19.52;;;8.60;;
85510;SDS011;75921;51.616;11.880;2024-02-15T04:08:22;22.80;;;11.90;;
85510;SDS011;75921;51.616;11.880;2024-02-15T04:10:48;16.17;;;8.43;;
85510;SDS011;75921;51.616;11.880;2024-02-15T04:13:13;17.10;;;8.52;;
85510;SDS011;75921;51.616;11.880;2024-02-15T04:15:39;13.67;;;7.23;;
85510;SDS011;75921;51.616;11.880;2024-02-15T04:18:04;17.90;;;9.67;;
85510;SDS011;75921;51.616;11.880;2024-02-15T04:20:29;14.47;;;7.27;;
85510;SDS011;75921;51.616;11.880;2024-02-15T04:22:54;20.15;;;9.18;;
85510;SDS011;75921;51.616;11.880;2024-02-15T04:25:21;24.17;;;11.73;;
85510;SDS011;75921;51.616;11.880;2024-02-15T04:27:52;19.70;;;10.30;;
85510;SDS011;75921;51.616;11.880;2024-02-15T04:30:17;20.70;;;9.70;;
85510;SDS011;75921;51.616;11.880;2024-02-15T04:32:44;22.58;;;11.70;;
85510;SDS011;75921;51.616;11.880;2024-02-15T04:35:09;22.10;;;12.02;;
85510;SDS011;75921;51.616;11.880;2024-02-15T04:37:35;22.50;;;11.23;;
85510;SDS011;75921;51.616;11.880;2024-02-15T04:40:02;19.33;;;9.57;;
85510;SDS011;75921;51.616;11.880;2024-02-15T04:42:34;25.33;;;10.95;;
85510;SDS011;75921;51.616;11.880;2024-02-15T04:45:02;29.00;;;12.90;;
85510;SDS011;75921;51.616;11.880;2024-02-15T04:47:28;26.83;;;11.88;;
85510;SDS011;75921;51.616;11.880;2024-02-15T04:49:54;27.08;;;11.85;;
85510;SDS011;75921;51.616;11.880;2024-02-15T04:52:20;31.13;;;13.87;;
85510;SDS011;75921;51.616;11.880;2024-02-15T04:54:48;27.85;;;13.35;;
85510;SDS011;75921;51.616;11.880;2024-02-15T04:57:13;26.47;;;13.00;;
85510;SDS011;75921;51.616;11.880;2024-02-15T04:59:39;26.17;;;12.73;;
85510;SDS011;75921;51.616;11.880;2024-02-15T05:02:04;31.00;;;13.67;;
85510;SDS011;75921;51.616;11.880;2024-02-15T05:04:29;24.90;;;10.33;;
85510;SDS011;75921;51.616;11.880;2024-02-15T05:06:54;30.07;;;11.63;;
85510;SDS011;75921;51.616;11.880;2024-02-15T05:09:21;26.00;;;12.10;;
85510;SDS011;75921;51.616;11.880;2024-02-15T05:11:47;26.25;;;11.15;;
85510;SDS011;75921;51.616;11.880;2024-02-15T05:14:16;20.67;;;10.35;;
85510;SDS011;75921;51.616;11.880;2024-02-15T05:16:45;32.97;;;14.57;;
85510;SDS011;75921;51.616;11.880;2024-02-15T05:19:12;25.42;;;12.23;;
85510;SDS011;75921;51.616;11.880;2024-02-15T05:21:38;28.63;;;12.05;;
85510;SDS011;75921;51.616;11.880;2024-02-15T05:24:06;29.08;;;13.25;;
85510;SDS011;75921;51.616;11.880;2024-02-15T05:26:32;23.67;;;11.98;;
85510;SDS011;75921;51.616;11.880;2024-02-15T05:28:57;30.70;;;10.95;;
85510;SDS011;75921;51.616;11.880;2024-02-15T05:31:23;27.80;;;12.27;;
85510;SDS011;75921;51.616;11.880;2024-02-15T05:33:50;24.15;;;11.55;;
85510;SDS011;75921;51.616;11.880;2024-02-15T05:36:17;21.98;;;10.20;;
85510;SDS011;75921;51.616;11.880;2024-02-15T05:38:47;27.65;;;12.77;;
85510;SDS011;75921;51.616;11.880;2024-02-15T05:41:13;32.30;;;13.98;;
85510;SDS011;75921;51.616;11.880;2024-02-15T05:43:38;31.73;;;12.60;;
85510;SDS011;75921;51.616;11.880;2024-02-15T05:46:04;25.00;;;12.90;;
85510;SDS011;75921;51.616;11.880;2024-02-15T05:48:31;29.73;;;12.45;;
85510;SDS011;75921;51.616;11.880;2024-02-15T05:50:59;27.10;;;12.52;;
85510;SDS011;75921;51.616;11.880;2024-02-15T05:53:25;30.90;;;13.82;;
85510;SDS011;75921;51.616;11.880;2024-02-15T05:55:50;35.27;;;13.50;;
85510;SDS011;75921;51.616;11.880;2024-02-15T05:58:16;31.60;;;14.27;;
85510;SDS011;75921;51.616;11.880;2024-02-15T06:00:41;31.83;;;13.48;;
85510;SDS011;75921;51.616;11.880;2024-02-15T06:03:08;25.73;;;13.55;;
85510;SDS011;75921;51.616;11.880;2024-02-15T06:05:34;26.10;;;12.30;;
85510;SDS011;75921;51.616;11.880;2024-02-15T06:08:00;31.08;;;14.55;;
85510;SDS011;75921;51.616;11.880;2024-02-15T06:10:25;26.38;;;12.27;;
85510;SDS011;75921;51.616;11.880;2024-02-15T06:12:50;25.75;;;12.23;;
85510;SDS011;75921;51.616;11.880;2024-02-15T06:15:16;31.98;;;13.75;;
85510;SDS011;75921;51.616;11.880;2024-02-15T06:17:42;28.27;;;13.27;;
85510;SDS011;75921;51.616;11.880;2024-02-15T06:20:11;28.75;;;12.27;;
85510;SDS011;75921;51.616;11.880;2024-02-15T06:22:38;29.50;;;12.20;;
85510;SDS011;75921;51.616;11.880;2024-02-15T06:25:04;25.52;;;11.75;;
85510;SDS011;75921;51.616;11.880;2024-02-15T06:27:30;28.85;;;11.57;;
85510;SDS011;75921;51.616;11.880;2024-02-15T06:29:56;28.98;;;13.48;;
85510;SDS011;75921;51.616;11.880;2024-02-15T06:32:40;31.30;;;14.63;;
85510;SDS011;75921;51.616;11.880;2024-02-15T06:35:24;25.48;;;11.27;;
85510;SDS011;75921;51.616;11.880;2024-02-15T06:38:08;21.80;;;10.75;;
85510;SDS011;75921;51.616;11.880;2024-02-15T06:40:52;28.08;;;12.70;;
85510;SDS011;75921;51.616;11.880;2024-02-15T06:43:19;27.60;;;11.65;;
85510;SDS011;75921;51.616;11.880;2024-02-15T06:45:44;23.13;;;9.93;;
85510;SDS011;75921;51.616;11.880;2024-02-15T06:48:11;25.65;;;12.43;;
85510;SDS011;75921;51.616;11.880;2024-02-15T06:50:37;28.20;;;11.13;;
85510;SDS011;75921;51.616;11.880;2024-02-15T06:53:02;23.40;;;9.75;;
85510;SDS011;75921;51.616;11.880;2024-02-15T06:55:28;28.33;;;14.30;;
85510;SDS011;75921;51.616;11.880;2024-02-15T06:57:53;22.63;;;10.80;;
85510;SDS011;75921;51.616;11.880;2024-02-15T07:00:20;22.25;;;12.05;;
85510;SDS011;75921;51.616;11.880;2024-02-15T07:02:45;20.60;;;11.68;;
85510;SDS011;75921;51.616;11.880;2024-02-15T07:05:10;21.23;;;10.53;;
85510;SDS011;75921;51.616;11.880;2024-02-15T07:07:35;22.87;;;11.10;;
85510;SDS011;75921;51.616;11.880;2024-02-15T07:10:01;20.90;;;8.25;;
85510;SDS011;75921;51.616;11.880;2024-02-15T07:12:27;20.70;;;10.85;;
85510;SDS011;75921;51.616;11.880;2024-02-15T07:14:53;24.43;;;13.77;;
85510;SDS011;75921;51.616;11.880;2024-02-15T07:17:19;24.83;;;13.50;;
85510;SDS011;75921;51.616;11.880;2024-02-15T07:19:45;21.35;;;10.85;;
85510;SDS011;75921;51.616;11.880;2024-02-15T07:22:14;25.20;;;12.18;;
85510;SDS011;75921;51.616;11.880;2024-02-15T07:24:39;21.33;;;11.47;;
85510;SDS011;75921;51.616;11.880;2024-02-15T07:27:05;26.40;;;13.17;;
85510;SDS011;75921;51.616;11.880;2024-02-15T07:29:30;23.52;;;11.25;;
85510;SDS011;75921;51.616;11.880;2024-02-15T07:32:01;19.98;;;11.85;;
85510;SDS011;75921;51.616;11.880;2024-02-15T07:34:30;20.90;;;10.30;;
85510;SDS011;75921;51.616;11.880;2024-02-15T07:36:55;24.92;;;13.10;;
85510;SDS011;75921;51.616;11.880;2024-02-15T07:39:23;25.00;;;11.35;;
85510;SDS011;75921;51.616;11.880;2024-02-15T07:41:50;26.50;;;12.02;;
85510;SDS011;75921;51.616;11.880;2024-02-15T07:44:21;23.27;;;11.43;;
85510;SDS011;75921;51.616;11.880;2024-02-15T07:46:47;23.77;;;12.33;;
85510;SDS011;75921;51.616;11.880;2024-02-15T07:49:12;24.45;;;12.20;;
85510;SDS011;75921;51.616;11.880;2024-02-15T07:51:37;21.97;;;11.37;;
85510;SDS011;75921;51.616;11.880;2024-02-15T07:54:03;25.43;;;11.27;;
85510;SDS011;75921;51.616;11.880;2024-02-15T07:56:29;20.60;;;11.52;;
85510;SDS011;75921;51.616;11.880;2024-02-15T07:58:54;19.23;;;10.43;;
85510;SDS011;75921;51.616;11.880;2024-02-15T08:01:20;21.20;;;12.30;;
85510;SDS011;75921;51.616;11.880;2024-02-15T08:03:46;18.73;;;11.18;;
85510;SDS011;75921;51.616;11.880;2024-02-15T08:06:11;19.63;;;10.17;;
85510;SDS011;75921;51.616;11.880;2024-02-15T08:08:37;22.52;;;11.82;;
85510;SDS011;75921;51.616;11.880;2024-02-15T08:11:04;19.45;;;10.02;;
85510;SDS011;75921;51.616;11.880;2024-02-15T08:13:29;19.08;;;9.82;;
85510;SDS011;75921;51.616;11.880;2024-02-15T08:15:55;19.53;;;10.57;;
85510;SDS011;75921;51.616;11.880;2024-02-15T08:18:20;15.95;;;8.68;;
85510;SDS011;75921;51.616;11.880;2024-02-15T08:20:46;20.00;;;9.57;;
85510;SDS011;75921;51.616;11.880;2024-02-15T08:23:11;17.13;;;9.40;;
85510;SDS011;75921;51.616;11.880;2024-02-15T08:25:39;19.17;;;9.77;;
85510;SDS011;75921;51.616;11.880;2024-02-15T08:28:06;19.88;;;10.57;;
85510;SDS011;75921;51.616;11.880;2024-02-15T08:30:32;22.08;;;10.65;;
85510;SDS011;75921;51.616;11.880;2024-02-15T08:32:57;18.70;;;9.98;;
85510;SDS011;75921;51.616;11.880;2024-02-15T08:35:23;21.50;;;9.10;;
85510;SDS011;75921;51.616;11.880;2024-02-15T08:37:48;23.25;;;10.20;;
85510;SDS011;75921;51.616;11.880;2024-02-15T08:40:16;18.30;;;10.23;;
85510;SDS011;75921;51.616;11.880;2024-02-15T08:42:44;19.25;;;10.07;;
85510;SDS011;75921;51.616;11.880;2024-02-15T08:45:10;20.85;;;11.00;;
85510;SDS011;75921;51.616;11.880;2024-02-15T08:47:37;13.07;;;8.25;;
85510;SDS011;75921;51.616;11.880;2024-02-15T08:50:04;17.20;;;10.95;;
85510;SDS011;75921;51.616;11.880;2024-02-15T08:52:30;16.98;;;9.73;;
85510;SDS011;75921;51.616;11.880;2024-02-15T08:54:55;18.15;;;9.43;;
85510;SDS011;75921;51.616;11.880;2024-02-15T08:57:22;22.00;;;10.73;;
85510;SDS011;75921;51.616;11.880;2024-02-15T08:59:47;19.77;;;9.85;;
85510;SDS011;75921;51.616;11.880;2024-02-15T09:02:12;22.27;;;11.10;;
85510;SDS011;75921;51.616;11.880;2024-02-15T09:04:39;19.38;;;10.30;;
85510;SDS011;75921;51.616;11.880;2024-02-15T09:07:05;13.88;;;8.32;;
85510;SDS011;75921;51.616;11.880;2024-02-15T09:09:32;14.55;;;8.38;;
85510;SDS011;75921;51.616;11.880;2024-02-15T09:12:00;14.32;;;8.18;;
85510;SDS011;75921;51.616;11.880;2024-02-15T09:14:26;13.82;;;8.00;;
85510;SDS011;75921;51.616;11.880;2024-02-15T09:16:51;13.83;;;7.97;;
85510;SDS011;75921;51.616;11.880;2024-02-15T09:19:16;17.63;;;9.00;;
85510;SDS011;75921;51.616;11.880;2024-02-15T09:21:41;15.13;;;10.43;;
85510;SDS011;75921;51.616;11.880;2024-02-15T09:24:07;18.23;;;7.23;;
85510;SDS011;75921;51.616;11.880;2024-02-15T09:26:33;12.65;;;8.77;;
85510;SDS011;75921;51.616;11.880;2024-02-15T09:28:58;13.75;;;8.90;;
85510;SDS011;75921;51.616;11.880;2024-02-15T09:31:23;13.93;;;9.03;;
85510;SDS011;75921;51.616;11.880;2024-02-15T09:33:49;15.18;;;8.73;;
85510;SDS011;75921;51.616;11.880;2024-02-15T09:36:15;13.10;;;7.32;;
85510;SDS011;75921;51.616;11.880;2024-02-15T09:38:41;14.30;;;7.93;;
85510;SDS011;75921;51.616;11.880;2024-02-15T09:41:06;14.55;;;8.43;;
85510;SDS011;75921;51.616;11.880;2024-02-15T09:43:32;17.85;;;8.70;;
85510;SDS011;75921;51.616;11.880;2024-02-15T09:45:59;15.55;;;8.00;;
85510;SDS011;75921;51.616;11.880;2024-02-15T09:48:29;13.10;;;7.28;;
85510;SDS011;75921;51.616;11.880;2024-02-15T09:50:55;14.15;;;7.75;;
85510;SDS011;75921;51.616;11.880;2024-02-15T09:53:22;14.88;;;7.50;;
85510;SDS011;75921;51.616;11.880;2024-02-15T09:55:50;11.50;;;6.90;;
85510;SDS011;75921;51.616;11.880;2024-02-15T09:58:19;13.93;;;7.65;;
85510;SDS011;75921;51.616;11.880;2024-02-15T10:00:44;13.15;;;7.30;;
85510;SDS011;75921;51.616;11.880;2024-02-15T10:03:11;14.25;;;7.30;;
85510;SDS011;75921;51.616;11.880;2024-02-15T10:05:40;12.82;;;8.07;;
85510;SDS011;75921;51.616;11.880;2024-02-15T10:08:06;10.77;;;5.67;;
85510;SDS011;75921;51.616;11.880;2024-02-15T10:10:32;10.65;;;5.88;;
85510;SDS011;75921;51.616;11.880;2024-02-15T10:12:58;8.45;;;4.95;;
85510;SDS011;75921;51.616;11.880;2024-02-15T10:15:29;13.85;;;7.57;;
85510;SDS011;75921;51.616;11.880;2024-02-15T10:17:57;14.65;;;8.45;;
85510;SDS011;75921;51.616;11.880;2024-02-15T10:20:24;13.27;;;7.90;;
85510;SDS011;75921;51.616;11.880;2024-02-15T10:23:14;10.40;;;6.10;;
85510;SDS011;75921;51.616;11.880;2024-02-15T10:25:42;12.43;;;7.00;;
85510;SDS011;75921;51.616;11.880;2024-02-15T10:28:08;9.13;;;6.05;;
85510;SDS011;75921;51.616;11.880;2024-02-15T10:30:40;11.10;;;6.85;;
85510;SDS011;75921;51.616;11.880;2024-02-15T10:33:10;9.20;;;5.72;;
85510;SDS011;75921;51.616;11.880;2024-02-15T10:35:45;12.82;;;6.72;;
85510;SDS011;75921;51.616;11.880;2024-02-15T10:38:10;9.43;;;6.10;;
85510;SDS011;75921;51.616;11.880;2024-02-15T10:40:37;10.48;;;6.78;;
85510;SDS011;75921;51.616;11.880;2024-02-15T10:43:04;8.90;;;6.18;;
85510;SDS011;75921;51.616;11.880;2024-02-15T10:45:30;10.90;;;6.85;;
85510;SDS011;75921;51.616;11.880;2024-02-15T10:47:56;9.30;;;4.97;;
85510;SDS011;75921;51.616;11.880;2024-02-15T10:50:22;12.60;;;4.90;;
85510;SDS011;75921;51.616;11.880;2024-02-15T10:52:57;9.18;;;4.63;;
85510;SDS011;75921;51.616;11.880;2024-02-15T10:55:37;9.30;;;4.05;;
85510;SDS011;75921;51.616;11.880;2024-02-15T10:58:06;6.93;;;4.40;;
85510;SDS011;75921;51.616;11.880;2024-02-15T11:00:32;10.30;;;6.10;;
85510;SDS011;75921;51.616;11.880;2024-02-15T11:03:02;7.40;;;4.85;;
85510;SDS011;75921;51.616;11.880;2024-02-15T11:05:34;5.85;;;3.95;;
85510;SDS011;75921;51.616;11.880;2024-02-15T11:08:03;8.48;;;4.63;;
85510;SDS011;75921;51.616;11.880;2024-02-15T11:10:30;9.23;;;4.95;;
85510;SDS011;75921;51.616;11.880;2024-02-15T11:12:55;7.03;;;4.95;;
85510;SDS011;75921;51.616;11.880;2024-02-15T11:18:02;5.95;;;4.55;;
85510;SDS011;75921;51.616;11.880;2024-02-15T11:22:57;6.43;;;4.88;;
85510;SDS011;75921;51.616;11.880;2024-02-15T11:25:36;7.15;;;4.53;;
85510;SDS011;75921;51.616;11.880;2024-02-15T11:30:53;8.45;;;4.05;;
85510;SDS011;75921;51.616;11.880;2024-02-15T11:33:31;6.63;;;4.72;;
85510;SDS011;75921;51.616;11.880;2024-02-15T11:36:06;6.25;;;3.47;;
85510;SDS011;75921;51.616;11.880;2024-02-15T11:38:39;6.35;;;4.03;;
85510;SDS011;75921;51.616;11.880;2024-02-15T11:41:06;8.10;;;3.85;;
85510;SDS011;75921;51.616;11.880;2024-02-15T11:46:08;4.45;;;3.15;;
85510;SDS011;75921;51.616;11.880;2024-02-15T11:48:35;6.05;;;3.33;;
85510;SDS011;75921;51.616;11.880;2024-02-15T11:51:04;3.60;;;2.60;;
85510;SDS011;75921;51.616;11.880;2024-02-15T11:53:31;4.80;;;3.30;;
85510;SDS011;75921;51.616;11.880;2024-02-15T11:55:59;4.43;;;2.83;;
85510;SDS011;75921;51.616;11.880;2024-02-15T11:58:26;6.45;;;3.47;;
85510;SDS011;75921;51.616;11.880;2024-02-15T12:01:07;4.80;;;3.33;;
85510;SDS011;75921;51.616;11.880;2024-02-15T12:03:52;8.48;;;3.70;;
85510;SDS011;75921;51.616;11.880;2024-02-15T12:06:38;6.20;;;2.72;;
85510;SDS011;75921;51.616;11.880;2024-02-15T12:09:22;4.95;;;3.00;;
85510;SDS011;75921;51.616;11.880;2024-02-15T12:12:06;5.15;;;2.67;;
85510;SDS011;75921;51.616;11.880;2024-02-15T12:14:59;5.95;;;2.65;;
85510;SDS011;75921;51.616;11.880;2024-02-15T12:17:43;3.53;;;2.80;;
85510;SDS011;75921;51.616;11.880;2024-02-15T12:20:27;4.70;;;2.58;;
85510;SDS011;75921;51.616;11.880;2024-02-15T12:22:53;4.97;;;2.50;;
85510;SDS011;75921;51.616;11.880;2024-02-15T12:25:19;5.35;;;2.63;;
85510;SDS011;75921;51.616;11.880;2024-02-15T12:27:46;3.42;;;2.53;;
85510;SDS011;75921;51.616;11.880;2024-02-15T12:32:50;4.75;;;2.53;;
85510;SDS011;75921;51.616;11.880;2024-02-15T12:35:17;4.30;;;2.83;;
85510;SDS011;75921;51.616;11.880;2024-02-15T12:40:30;4.95;;;3.28;;
85510;SDS011;75921;51.616;11.880;2024-02-15T12:42:59;5.32;;;2.80;;
85510;SDS011;75921;51.616;11.880;2024-02-15T12:45:30;4.10;;;2.72;;
85510;SDS011;75921;51.616;11.880;2024-02-15T12:47:56;3.92;;;2.55;;
85510;SDS011;75921;51.616;11.880;2024-02-15T12:50:22;3.83;;;3.10;;
85510;SDS011;75921;51.616;11.880;2024-02-15T12:52:52;4.30;;;2.80;;
85510;SDS011;75921;51.616;11.880;2024-02-15T12:55:22;4.90;;;2.85;;
85510;SDS011;75921;51.616;11.880;2024-02-15T12:57:50;5.68;;;2.83;;
85510;SDS011;75921;51.616;11.880;2024-02-15T13:00:24;4.72;;;2.97;;
85510;SDS011;75921;51.616;11.880;2024-02-15T13:02:54;6.20;;;3.03;;
85510;SDS011;75921;51.616;11.880;2024-02-15T13:05:21;3.60;;;2.47;;
85510;SDS011;75921;51.616;11.880;2024-02-15T13:07:47;4.80;;;2.88;;
85510;SDS011;75921;51.616;11.880;2024-02-15T13:10:14;3.80;;;2.63;;
85510;SDS011;75921;51.616;11.880;2024-02-15T13:12:42;5.97;;;3.10;;
85510;SDS011;75921;51.616;11.880;2024-02-15T13:15:10;4.93;;;2.88;;
85510;SDS011;75921;51.616;11.880;2024-02-15T13:17:39;4.18;;;2.70;;
85510;SDS011;75921;51.616;11.880;2024-02-15T13:20:08;4.35;;;2.80;;
85510;SDS011;75921;51.616;11.880;2024-02-15T13:22:35;6.55;;;2.53;;
85510;SDS011;75921;51.616;11.880;2024-02-15T13:25:01;4.73;;;2.40;;
85510;SDS011;75921;51.616;11.880;2024-02-15T13:27:28;5.18;;;3.10;;
85510;SDS011;75921;51.616;11.880;2024-02-15T13:29:53;4.30;;;2.47;;
85510;SDS011;75921;51.616;11.880;2024-02-15T13:32:18;2.83;;;2.00;;
85510;SDS011;75921;51.616;11.880;2024-02-15T13:34:46;3.15;;;2.17;;
85510;SDS011;75921;51.616;11.880;2024-02-15T13:37:16;4.57;;;2.25;;
85510;SDS011;75921;51.616;11.880;2024-02-15T13:39:42;4.18;;;2.75;;
85510;SDS011;75921;51.616;11.880;2024-02-15T13:42:10;2.78;;;2.20;;
85510;SDS011;75921;51.616;11.880;2024-02-15T13:44:35;4.87;;;2.50;;
85510;SDS011;75921;51.616;11.880;2024-02-15T13:47:01;5.72;;;2.65;;
85510;SDS011;75921;51.616;11.880;2024-02-15T13:49:27;3.93;;;2.97;;
85510;SDS011;75921;51.616;11.880;2024-02-15T13:51:52;4.47;;;2.43;;
85510;SDS011;75921;51.616;11.880;2024-02-15T13:54:17;3.67;;;2.20;;
85510;SDS011;75921;51.616;11.880;2024-02-15T13:56:43;5.70;;;2.80;;
85510;SDS011;75921;51.616;11.880;2024-02-15T13:59:08;5.53;;;2.55;;
85510;SDS011;75921;51.616;11.880;2024-02-15T14:01:34;4.60;;;2.43;;
85510;SDS011;75921;51.616;11.880;2024-02-15T14:03:59;3.80;;;2.63;;
85510;SDS011;75921;51.616;11.880;2024-02-15T14:06:24;4.57;;;2.60;;
85510;SDS011;75921;51.616;11.880;2024-02-15T14:08:49;4.07;;;2.17;;
85510;SDS011;75921;51.616;11.880;2024-02-15T14:11:15;4.15;;;2.50;;
85510;SDS011;75921;51.616;11.880;2024-02-15T14:13:42;3.22;;;2.42;;
85510;SDS011;75921;51.616;11.880;2024-02-15T14:16:07;3.23;;;2.00;;
85510;SDS011;75921;51.616;11.880;2024-02-15T14:18:33;4.13;;;2.38;;
85510;SDS011;75921;51.616;11.880;2024-02-15T14:20:59;2.95;;;2.10;;
85510;SDS011;75921;51.616;11.880;2024-02-15T14:23:25;4.75;;;2.35;;
85510;SDS011;75921;51.616;11.880;2024-02-15T14:25:52;3.15;;;2.53;;
85510;SDS011;75921;51.616;11.880;2024-02-15T14:28:18;5.68;;;2.80;;
85510;SDS011;75921;51.616;11.880;2024-02-15T14:30:43;3.42;;;2.58;;
85510;SDS011;75921;51.616;11.880;2024-02-15T14:33:27;4.93;;;2.47;;
85510;SDS011;75921;51.616;11.880;2024-02-15T14:35:52;4.13;;;2.30;;